CheckWX is a tool to help pilots better visualize weather data.  It is not intended as a substitute for an official pre-flight weather briefing.

06:09:46 UTC

LFOB TAF
Paris Beauvais Tillé Airport
Beauvais/Tillé, France
TAF LFOB 011100Z 0112/0212 08011KT CAVOK BECMG 0118/0120 36005KT

Jun-1@
12:00 UTC

Jun-1 @ 12:00 UTC

Jun-1@
18:00 UTC

Jun-1 @ 18:00 UTC

TAF LFOB 011100Z 0112/0212 08011KT CAVOK

Expired

Wind
  • 080° at 11 KTS
Conditions
No significant weather
Cloud Levels
  • No significant clouds

Jun-1@
18:00 UTC

Jun-1 @ 18:00 UTC

Jun-2@
12:00 UTC

Jun-2 @ 12:00 UTC

BECMG 0118/0120 36005KT

Becoming

Becoming Conditions expected by Mon, Jun 1, 2020 @ 20:00 UTC

Wind
  • 360° at 5 KTS
Conditions
No significant weather
Cloud Levels
  • No significant clouds